createdAt,value
2018-10-11T00:01:29.979Z,7.10
2018-10-11T00:03:58.405Z,6.50
2018-10-11T00:06:26.813Z,6.57
2018-10-11T00:08:55.257Z,6.70
2018-10-11T00:11:23.653Z,6.97
2018-10-11T00:13:52.194Z,7.37
2018-10-11T00:16:20.580Z,6.73
2018-10-11T00:18:48.988Z,7.00
2018-10-11T00:21:17.369Z,6.73
2018-10-11T00:23:45.839Z,8.33
2018-10-11T00:26:14.277Z,7.40
2018-10-11T00:28:42.689Z,7.33
2018-10-11T00:31:11.065Z,6.90
2018-10-11T00:33:39.490Z,7.03
2018-10-11T00:36:07.894Z,6.47
2018-10-11T00:38:36.419Z,7.20
2018-10-11T00:41:04.838Z,7.50
2018-10-11T00:43:33.261Z,6.77
2018-10-11T00:46:08.405Z,6.63
2018-10-11T00:48:36.837Z,7.93
2018-10-11T00:51:05.289Z,8.30
2018-10-11T00:53:33.665Z,8.87
2018-10-11T00:56:02.090Z,8.90
2018-10-11T00:58:30.532Z,9.13
2018-10-11T01:00:58.988Z,8.67
2018-10-11T01:03:27.378Z,8.83
2018-10-11T01:05:55.789Z,7.37
2018-10-11T01:08:24.190Z,8.50
2018-10-11T01:10:52.637Z,7.47
2018-10-11T01:13:21.018Z,8.60
2018-10-11T01:15:49.438Z,8.20
2018-10-11T01:18:17.822Z,7.27
2018-10-11T01:20:46.245Z,7.57
2018-10-11T01:23:14.626Z,7.77
2018-10-11T01:25:43.077Z,7.23
2018-10-11T01:28:11.461Z,7.43
2018-10-11T01:30:44.022Z,7.50
2018-10-11T01:33:12.414Z,7.07
2018-10-11T01:35:40.841Z,7.70
2018-10-11T01:38:09.283Z,7.63
2018-10-11T01:40:38.486Z,7.50
2018-10-11T01:43:07.174Z,8.37
2018-10-11T01:45:35.965Z,8.07
2018-10-11T01:48:04.441Z,8.07
2018-10-11T01:50:32.874Z,8.37
2018-10-11T01:53:01.974Z,7.87
2018-10-11T01:55:30.373Z,8.23
2018-10-11T01:57:59.554Z,7.87
2018-10-11T02:00:27.985Z,7.40
2018-10-11T02:02:58.742Z,7.53
2018-10-11T02:05:27.909Z,7.23
2018-10-11T02:07:57.341Z,6.73
2018-10-11T02:10:26.718Z,6.43
2018-10-11T02:12:55.168Z,6.50
2018-10-11T02:15:23.792Z,6.37
2018-10-11T02:17:52.230Z,6.83
2018-10-11T02:20:20.613Z,6.90
2018-10-11T02:22:49.029Z,6.30
2018-10-11T02:25:17.450Z,6.10
2018-10-11T02:27:45.877Z,5.83
2018-10-11T02:30:14.289Z,5.80
2018-10-11T02:32:43.274Z,6.03
2018-10-11T02:35:12.451Z,5.90
2018-10-11T02:37:41.270Z,6.00
2018-10-11T02:40:09.707Z,6.00
2018-10-11T02:42:38.130Z,5.30
2018-10-11T02:45:07.133Z,6.00
2018-10-11T02:47:35.534Z,5.80
2018-10-11T02:50:04.015Z,5.17
2018-10-11T02:52:32.454Z,5.37
2018-10-11T02:55:00.947Z,5.53
2018-10-11T02:57:40.463Z,5.57
2018-10-11T03:00:08.957Z,6.17
2018-10-11T03:02:38.718Z,5.47
2018-10-11T03:05:12.017Z,5.90
2018-10-11T03:07:40.486Z,5.43
2018-10-11T03:10:08.981Z,5.73
2018-10-11T03:12:37.394Z,5.73
2018-10-11T03:15:06.101Z,5.03
2018-10-11T03:17:34.514Z,5.27
2018-10-11T03:20:03.682Z,5.23
2018-10-11T03:22:32.098Z,5.00
2018-10-11T03:25:00.529Z,5.40
2018-10-11T03:27:29.006Z,5.30
2018-10-11T03:29:57.467Z,5.07
2018-10-11T03:32:25.869Z,5.13
2018-10-11T03:34:54.286Z,5.60
2018-10-11T03:37:22.703Z,5.20
2018-10-11T03:39:51.090Z,5.30
2018-10-11T03:42:19.519Z,5.67
2018-10-11T03:44:47.915Z,5.33
2018-10-11T03:47:16.357Z,5.30
2018-10-11T03:49:44.753Z,5.30
2018-10-11T03:52:13.213Z,4.97
2018-10-11T03:54:41.612Z,5.30
2018-10-11T03:57:10.041Z,5.30
2018-10-11T03:59:39.850Z,5.50
2018-10-11T04:02:08.315Z,5.60
2018-10-11T04:04:36.718Z,5.47
2018-10-11T04:07:05.159Z,5.17
2018-10-11T04:09:33.565Z,6.17
2018-10-11T04:12:02.043Z,5.90
2018-10-11T04:14:30.429Z,5.60
2018-10-11T04:16:58.853Z,5.40
2018-10-11T04:19:27.250Z,5.90
2018-10-11T04:21:55.727Z,5.90
2018-10-11T04:24:24.158Z,5.53
2018-10-11T04:26:52.634Z,5.40
2018-10-11T04:29:21.021Z,5.60
2018-10-11T04:31:49.406Z,5.07
2018-10-11T04:34:17.831Z,5.70
2018-10-11T04:36:46.231Z,5.60
2018-10-11T04:39:14.677Z,5.70
2018-10-11T04:41:43.111Z,6.00
2018-10-11T04:44:11.586Z,5.93
2018-10-11T04:46:40.262Z,5.77
2018-10-11T04:49:08.858Z,6.37
2018-10-11T04:51:37.302Z,5.97
2018-10-11T04:54:05.753Z,6.20
2018-10-11T04:56:34.162Z,7.10
2018-10-11T04:59:03.033Z,6.00
2018-10-11T05:01:31.464Z,6.10
2018-10-11T05:03:59.925Z,5.53
2018-10-11T05:06:28.367Z,6.43
2018-10-11T05:08:56.830Z,6.47
2018-10-11T05:11:25.328Z,6.33
2018-10-11T05:13:53.834Z,6.00
2018-10-11T05:16:22.270Z,6.33
2018-10-11T05:18:54.377Z,5.97
2018-10-11T05:21:22.867Z,6.33
2018-10-11T05:23:51.352Z,6.13
2018-10-11T05:26:19.802Z,6.23
2018-10-11T05:28:48.285Z,6.40
2018-10-11T05:31:17.325Z,7.00
2018-10-11T05:33:45.758Z,6.23
2018-10-11T05:36:14.818Z,6.20
2018-10-11T05:38:43.882Z,6.20
2018-10-11T05:41:12.813Z,6.67
2018-10-11T05:43:41.418Z,6.37
2018-10-11T05:46:27.587Z,6.37
2018-10-11T05:48:56.954Z,6.27
2018-10-11T05:51:25.819Z,6.47
2018-10-11T05:53:55.694Z,6.53
2018-10-11T05:56:24.986Z,6.20
2018-10-11T05:58:53.495Z,6.50
2018-10-11T06:01:22.187Z,6.47
2018-10-11T06:03:50.672Z,6.87
2018-10-11T06:06:19.942Z,6.57
2018-10-11T06:08:48.443Z,6.77
2018-10-11T06:11:16.988Z,6.43
2018-10-11T06:13:46.630Z,6.83
2018-10-11T06:16:15.122Z,7.07
2018-10-11T06:18:44.265Z,7.00
2018-10-11T06:21:13.041Z,6.80
2018-10-11T06:23:41.593Z,6.93
2018-10-11T06:26:10.090Z,6.40
2018-10-11T06:28:39.126Z,7.20
2018-10-11T06:31:07.585Z,6.67
2018-10-11T06:33:36.082Z,7.43
2018-10-11T06:36:04.580Z,12.77
2018-10-11T06:38:33.345Z,10.27
2018-10-11T06:41:06.385Z,9.03
2018-10-11T06:43:34.957Z,8.77
2018-10-11T06:46:03.686Z,7.90
2018-10-11T06:48:32.262Z,7.63
2018-10-11T06:51:00.737Z,7.17
2018-10-11T06:53:29.207Z,6.90
2018-10-11T06:55:57.653Z,7.10
2018-10-11T06:58:26.054Z,6.70
2018-10-11T07:00:54.485Z,6.63
2018-10-11T07:03:22.917Z,6.43
2018-10-11T07:05:51.317Z,6.43
2018-10-11T07:08:19.850Z,6.17
2018-10-11T07:10:48.245Z,6.30
2018-10-11T07:13:16.701Z,6.90
2018-10-11T07:15:45.092Z,6.80
2018-10-11T07:18:13.511Z,6.47
2018-10-11T07:20:42.664Z,6.70
2018-10-11T07:23:11.064Z,6.10
2018-10-11T07:25:39.539Z,6.37
2018-10-11T07:28:08.050Z,6.17
2018-10-11T07:30:36.469Z,6.07
2018-10-11T07:33:04.898Z,6.30
2018-10-11T07:35:33.595Z,6.10
2018-10-11T07:38:01.952Z,6.23
2018-10-11T07:40:30.494Z,6.63
2018-10-11T07:42:58.822Z,7.20
2018-10-11T07:45:27.303Z,6.00
2018-10-11T07:47:55.694Z,5.53
2018-10-11T07:50:24.122Z,6.87
2018-10-11T07:52:52.538Z,5.90
2018-10-11T07:55:20.982Z,5.90
2018-10-11T07:57:49.385Z,6.97
2018-10-11T08:00:17.846Z,6.17
2018-10-11T08:02:46.246Z,7.80
2018-10-11T08:05:14.664Z,9.53
2018-10-11T08:07:43.173Z,8.03
2018-10-11T08:10:11.600Z,6.90
2018-10-11T08:12:40.010Z,6.13
2018-10-11T08:15:08.494Z,5.77
2018-10-11T08:17:37.274Z,4.83
2018-10-11T08:20:05.530Z,4.77
2018-10-11T08:22:33.889Z,4.60
2018-10-11T08:25:03.078Z,4.70
2018-10-11T08:27:31.519Z,5.80
2018-10-11T08:29:59.913Z,6.10
2018-10-11T08:32:28.385Z,4.50
2018-10-11T08:34:56.794Z,4.10
2018-10-11T08:37:25.252Z,4.37
2018-10-11T08:39:53.678Z,4.40
2018-10-11T08:42:22.113Z,4.50
2018-10-11T08:44:50.534Z,4.97
2018-10-11T08:47:18.975Z,4.80
2018-10-11T08:49:47.375Z,5.00
2018-10-11T08:52:15.814Z,4.17
2018-10-11T08:54:49.396Z,4.30
2018-10-11T08:57:18.549Z,3.90
2018-10-11T08:59:47.120Z,4.57
2018-10-11T09:02:15.583Z,4.60
2018-10-11T09:04:44.346Z,4.40
2018-10-11T09:07:12.845Z,4.40
2018-10-11T09:09:42.210Z,3.87
2018-10-11T09:12:10.613Z,3.87
2018-10-11T09:14:39.098Z,3.57
2018-10-11T09:17:07.541Z,4.20
2018-10-11T09:19:35.966Z,4.20
2018-10-11T09:22:04.397Z,4.23
2018-10-11T09:24:32.890Z,4.27
2018-10-11T09:27:01.923Z,4.50
2018-10-11T09:29:30.364Z,3.80
2018-10-11T09:31:58.781Z,3.63
2018-10-11T09:34:27.246Z,4.00
2018-10-11T09:36:55.662Z,4.67
2018-10-11T09:39:24.119Z,3.83
2018-10-11T09:41:52.545Z,3.95
2018-10-11T09:44:20.991Z,3.77
2018-10-11T09:46:49.443Z,3.58
2018-10-11T09:49:17.874Z,3.77
2018-10-11T09:51:46.276Z,3.10
2018-10-11T09:54:14.735Z,3.95
2018-10-11T09:57:50.022Z,3.70
2018-10-11T10:00:23.810Z,4.12
2018-10-11T10:02:52.620Z,3.50
2018-10-11T10:05:21.069Z,4.22
2018-10-11T10:07:49.482Z,4.35
2018-10-11T10:10:17.934Z,4.40
2018-10-11T10:12:46.322Z,3.25
2018-10-11T10:15:14.745Z,3.35
2018-10-11T10:17:43.154Z,3.98
2018-10-11T10:20:11.610Z,4.08
2018-10-11T10:22:40.022Z,4.12
2018-10-11T10:25:08.475Z,3.55
2018-10-11T10:27:36.960Z,4.30
2018-10-11T10:30:11.407Z,3.83
2018-10-11T10:32:39.870Z,3.62
2018-10-11T10:35:08.307Z,3.50
2018-10-11T10:37:36.750Z,4.17
2018-10-11T10:40:05.300Z,3.62
2018-10-11T10:42:33.659Z,3.65
2018-10-11T10:45:02.058Z,3.87
2018-10-11T10:47:30.517Z,3.62
2018-10-11T10:49:58.922Z,3.37
2018-10-11T10:52:27.357Z,3.25
2018-10-11T10:54:55.749Z,3.00
2018-10-11T10:57:24.206Z,3.22
2018-10-11T10:59:52.597Z,3.25
2018-10-11T11:02:20.993Z,3.65
2018-10-11T11:04:49.424Z,3.35
2018-10-11T11:07:17.921Z,4.00
2018-10-11T11:09:46.342Z,3.40
2018-10-11T11:12:14.754Z,3.62
2018-10-11T11:14:43.184Z,3.80
2018-10-11T11:17:11.599Z,3.50
2018-10-11T11:19:40.050Z,3.85
2018-10-11T11:22:08.494Z,4.00
2018-10-11T11:24:39.795Z,3.70
2018-10-11T11:27:08.226Z,4.33
2018-10-11T11:29:36.661Z,4.53
2018-10-11T11:32:05.079Z,3.85
2018-10-11T11:34:33.522Z,3.85
2018-10-11T11:37:01.931Z,3.98
2018-10-11T11:39:30.377Z,3.67
2018-10-11T11:41:58.778Z,3.85
2018-10-11T11:44:27.306Z,4.12
2018-10-11T11:46:55.687Z,4.62
2018-10-11T11:49:24.117Z,4.03
2018-10-11T11:51:52.513Z,4.25
2018-10-11T11:54:22.021Z,4.37
2018-10-11T11:56:51.261Z,4.70
2018-10-11T11:59:19.648Z,5.28
2018-10-11T12:01:48.087Z,5.05
2018-10-11T12:04:16.483Z,4.45
2018-10-11T12:06:44.909Z,4.55
2018-10-11T12:09:14.340Z,5.30
2018-10-11T12:11:43.066Z,4.05
2018-10-11T12:14:11.449Z,5.00
2018-10-11T12:16:40.009Z,5.15
2018-10-11T12:19:09.738Z,5.17
2018-10-11T12:21:38.178Z,4.87
2018-10-11T12:24:06.640Z,4.97
2018-10-11T12:26:35.142Z,4.45
2018-10-11T12:29:03.634Z,5.17
2018-10-11T12:31:31.990Z,4.87
2018-10-11T12:34:00.426Z,5.58
2018-10-11T12:36:28.880Z,5.60
2018-10-11T12:38:57.266Z,6.15
2018-10-11T12:41:25.745Z,5.10
2018-10-11T12:43:54.121Z,5.37
2018-10-11T12:46:22.547Z,5.12
2018-10-11T12:48:50.997Z,5.40
2018-10-11T12:51:19.397Z,5.35
2018-10-11T12:53:48.633Z,5.80
2018-10-11T12:56:16.267Z,5.37
2018-10-11T12:58:44.765Z,6.30
2018-10-11T13:01:16.354Z,6.67
2018-10-11T13:03:41.598Z,6.03
2018-10-11T13:06:10.021Z,5.97
2018-10-11T13:08:38.466Z,6.15
2018-10-11T13:11:06.861Z,6.37
2018-10-11T13:13:35.293Z,6.53
2018-10-11T13:16:05.085Z,5.65
2018-10-11T13:18:32.853Z,5.60
2018-10-11T13:21:01.262Z,5.22
2018-10-11T13:23:29.694Z,5.75
2018-10-11T13:25:58.104Z,6.00
2018-10-11T13:28:26.570Z,5.80
2018-10-11T13:30:54.962Z,5.83
2018-10-11T13:33:23.409Z,6.20
2018-10-11T13:35:51.814Z,5.67
2018-10-11T13:38:20.290Z,6.42
2018-10-11T13:40:48.742Z,6.05
2018-10-11T13:43:17.138Z,6.65
2018-10-11T13:45:45.594Z,6.17
2018-10-11T13:48:14.013Z,5.58
2018-10-11T13:50:43.051Z,5.67
2018-10-11T13:53:15.422Z,5.60
2018-10-11T13:55:39.910Z,5.85
2018-10-11T13:58:08.326Z,5.62
2018-10-11T14:00:36.771Z,5.40
2018-10-11T14:03:05.174Z,6.17
2018-10-11T14:05:33.717Z,6.05
2018-10-11T14:08:02.114Z,5.37
2018-10-11T14:10:30.569Z,5.90
2018-10-11T14:12:59.007Z,5.42
2018-10-11T14:15:27.425Z,5.78
2018-10-11T14:17:56.746Z,5.87
2018-10-11T14:20:24.257Z,6.00
2018-10-11T14:22:52.665Z,5.67
2018-10-11T14:25:21.127Z,5.42
2018-10-11T14:27:49.570Z,6.03
2018-10-11T14:30:18.053Z,5.50
2018-10-11T14:32:46.454Z,5.67
2018-10-11T14:35:14.890Z,5.42
2018-10-11T14:37:43.342Z,5.60
2018-10-11T14:40:11.785Z,5.33
2018-10-11T14:42:40.244Z,5.87
2018-10-11T14:45:08.697Z,6.45
2018-10-11T14:47:37.166Z,5.80
2018-10-11T14:50:05.677Z,6.42
2018-10-11T14:52:34.278Z,5.87
2018-10-11T14:55:02.528Z,6.03
2018-10-11T14:57:30.970Z,5.60
2018-10-11T14:59:59.365Z,5.30
2018-10-11T15:02:27.813Z,5.42
2018-10-11T15:04:56.894Z,5.33
2018-10-11T15:07:29.697Z,5.53
2018-10-11T15:10:00.439Z,6.05
2018-10-11T15:12:28.946Z,6.17
2018-10-11T15:14:57.551Z,6.67
2018-10-11T15:17:25.980Z,5.60
2018-10-11T15:19:54.390Z,6.10
2018-10-11T15:22:22.846Z,6.20
2018-10-11T15:24:51.233Z,6.00
2018-10-11T15:27:19.678Z,6.12
2018-10-11T15:29:48.162Z,6.17
2018-10-11T15:32:16.554Z,5.95
2018-10-11T15:34:45.005Z,5.75
2018-10-11T15:37:13.393Z,5.60
2018-10-11T15:39:41.852Z,5.42
2018-10-11T15:42:10.239Z,5.92
2018-10-11T15:44:39.469Z,6.15
2018-10-11T15:47:07.870Z,6.03
2018-10-11T15:49:36.322Z,5.62
2018-10-11T15:52:04.719Z,6.17
2018-10-11T15:54:33.163Z,5.92
2018-10-11T15:57:02.021Z,6.25
2018-10-11T15:59:30.458Z,6.37
2018-10-11T16:01:58.857Z,6.78
2018-10-11T16:04:27.302Z,7.67
2018-10-11T16:06:55.716Z,7.45
2018-10-11T16:09:24.204Z,7.17
2018-10-11T16:11:52.630Z,6.83
2018-10-11T16:14:21.050Z,6.45
2018-10-11T16:16:49.462Z,7.00
2018-10-11T16:19:17.938Z,6.67
2018-10-11T16:21:46.342Z,6.50
2018-10-11T16:24:15.139Z,6.67
2018-10-11T16:26:43.587Z,6.80
2018-10-11T16:29:12.010Z,6.42
2018-10-11T16:31:40.450Z,7.08
2018-10-11T16:34:09.303Z,7.75
2018-10-11T16:36:37.747Z,8.15
2018-10-11T16:39:07.713Z,6.35
2018-10-11T16:41:36.150Z,7.33
2018-10-11T16:44:04.587Z,7.75
2018-10-11T16:46:33.541Z,7.22
2018-10-11T16:49:01.963Z,8.23
2018-10-11T16:51:30.609Z,8.58
2018-10-11T16:53:59.025Z,9.65
2018-10-11T16:56:27.473Z,8.53
2018-10-11T16:58:55.939Z,8.40
2018-10-11T17:01:24.381Z,8.60
2018-10-11T17:03:52.889Z,8.25
2018-10-11T17:06:21.355Z,8.00
2018-10-11T17:08:49.754Z,8.58
2018-10-11T17:11:18.270Z,7.85
2018-10-11T17:13:46.710Z,8.80
2018-10-11T17:16:15.179Z,8.30
2018-10-11T17:18:43.584Z,8.35
2018-10-11T17:21:11.991Z,7.95
2018-10-11T17:23:40.543Z,8.18
2018-10-11T17:26:08.978Z,8.48
2018-10-11T17:28:37.510Z,7.83
2018-10-11T17:31:06.217Z,8.30
2018-10-11T17:33:34.731Z,7.75
2018-10-11T17:36:03.634Z,9.00
2018-10-11T17:38:32.117Z,9.18
2018-10-11T17:41:00.532Z,8.35
2018-10-11T17:43:29.003Z,8.10
2018-10-11T17:45:57.419Z,7.70
2018-10-11T17:48:25.872Z,8.10
2018-10-11T17:50:54.301Z,7.30
2018-10-11T17:53:22.762Z,9.03
2018-10-11T17:55:51.177Z,8.37
2018-10-11T17:58:20.415Z,8.08
2018-10-11T18:00:48.950Z,9.63
2018-10-11T18:03:17.743Z,10.00
2018-10-11T18:05:46.201Z,8.00
2018-10-11T18:08:15.190Z,8.85
2018-10-11T18:10:43.620Z,7.80
2018-10-11T18:13:12.089Z,9.05
2018-10-11T18:15:40.599Z,7.57
2018-10-11T18:18:09.020Z,8.13
2018-10-11T18:20:37.466Z,8.33
2018-10-11T18:23:05.959Z,8.27
2018-10-11T18:25:34.533Z,7.60
2018-10-11T18:28:03.655Z,8.50
2018-10-11T18:30:32.075Z,8.40
2018-10-11T18:33:00.494Z,8.53
2018-10-11T18:35:28.983Z,8.80
2018-10-11T18:37:57.325Z,8.63
2018-10-11T18:40:25.739Z,9.10
2018-10-11T18:42:54.145Z,9.20
2018-10-11T18:45:22.565Z,8.70
2018-10-11T18:47:50.962Z,9.23
2018-10-11T18:50:19.406Z,10.00
2018-10-11T18:52:47.821Z,10.07
2018-10-11T18:55:16.284Z,9.83
2018-10-11T18:57:44.685Z,9.83
2018-10-11T19:00:14.093Z,9.33
2018-10-11T19:02:42.610Z,9.40
2018-10-11T19:05:11.135Z,10.57
2018-10-11T19:07:39.550Z,9.33
2018-10-11T19:10:08.028Z,8.87
2018-10-11T19:12:36.518Z,9.23
2018-10-11T19:15:05.451Z,8.57
2018-10-11T19:17:33.878Z,8.63
2018-10-11T19:20:02.293Z,9.30
2018-10-11T19:22:30.730Z,9.17
2018-10-11T19:24:59.165Z,9.10
2018-10-11T19:27:27.708Z,9.23
2018-10-11T19:29:56.134Z,8.83
2018-10-11T19:32:24.573Z,8.90
2018-10-11T19:34:52.978Z,8.97
2018-10-11T19:37:21.446Z,8.50
2018-10-11T19:39:49.889Z,8.37
2018-10-11T19:42:18.309Z,8.17
2018-10-11T19:44:46.917Z,9.00
2018-10-11T19:47:15.398Z,8.83
2018-10-11T19:49:43.795Z,9.57
2018-10-11T19:52:12.225Z,10.07
2018-10-11T19:54:40.694Z,8.73
2018-10-11T19:57:09.163Z,9.07
2018-10-11T19:59:38.866Z,8.97
2018-10-11T20:02:07.329Z,9.67
2018-10-11T20:04:35.726Z,9.87
2018-10-11T20:07:04.127Z,9.93
2018-10-11T20:09:32.559Z,9.90
2018-10-11T20:12:00.954Z,10.10
2018-10-11T20:14:29.398Z,10.70
2018-10-11T20:16:58.874Z,11.40
2018-10-11T20:19:27.310Z,11.70
2018-10-11T20:21:55.750Z,11.20
2018-10-11T20:24:24.181Z,11.03
2018-10-11T20:26:52.630Z,11.00
2018-10-11T20:29:21.097Z,10.33
2018-10-11T20:31:49.496Z,10.03
2018-10-11T20:34:17.938Z,10.03
2018-10-11T20:36:46.353Z,9.90
2018-10-11T20:39:14.794Z,10.73
2018-10-11T20:41:43.206Z,11.17
2018-10-11T20:44:11.683Z,9.90
2018-10-11T20:46:40.098Z,9.60
2018-10-11T20:49:08.717Z,9.67
2018-10-11T20:51:37.207Z,9.67
2018-10-11T20:54:05.626Z,9.37
2018-10-11T20:56:34.042Z,9.30
2018-10-11T20:59:03.126Z,9.63
2018-10-11T21:01:31.590Z,10.53
2018-10-11T21:04:00.007Z,9.93
2018-10-11T21:06:28.497Z,9.90
2018-10-11T21:08:56.959Z,9.37
2018-10-11T21:11:25.419Z,9.70
2018-10-11T21:13:53.858Z,9.43
2018-10-11T21:16:22.313Z,10.00
2018-10-11T21:18:51.233Z,9.20
2018-10-11T21:21:23.342Z,9.70
2018-10-11T21:23:52.174Z,9.43
2018-10-11T21:26:20.673Z,9.50
2018-10-11T21:28:49.158Z,10.03
2018-10-11T21:31:17.638Z,9.23
2018-10-11T21:33:46.058Z,9.00
2018-10-11T21:36:14.497Z,8.23
2018-10-11T21:38:42.934Z,8.63
2018-10-11T21:41:11.426Z,9.43
2018-10-11T21:43:39.859Z,10.23
2018-10-11T21:46:08.440Z,9.43
2018-10-11T21:48:36.806Z,9.87
2018-10-11T21:51:05.241Z,9.70
2018-10-11T21:53:33.703Z,9.67
2018-10-11T21:56:02.134Z,9.67
2018-10-11T21:58:30.763Z,8.57
2018-10-11T22:01:04.415Z,8.80
2018-10-11T22:03:32.857Z,9.07
2018-10-11T22:06:02.059Z,6.97
2018-10-11T22:08:30.573Z,7.60
2018-10-11T22:10:58.997Z,8.17
2018-10-11T22:13:27.458Z,7.40
2018-10-11T22:15:55.886Z,7.67
2018-10-11T22:18:24.401Z,7.97
2018-10-11T22:20:52.833Z,7.33
2018-10-11T22:23:21.267Z,8.00
2018-10-11T22:25:49.690Z,7.97
2018-10-11T22:28:18.154Z,7.67
2018-10-11T22:30:46.565Z,7.37
2018-10-11T22:33:15.015Z,8.40
2018-10-11T22:35:43.430Z,7.73
2018-10-11T22:38:11.877Z,7.93
2018-10-11T22:40:40.310Z,8.07
2018-10-11T22:43:08.831Z,7.67
2018-10-11T22:45:37.295Z,8.10
2018-10-11T22:48:05.789Z,7.97
2018-10-11T22:50:34.281Z,7.70
2018-10-11T22:53:02.871Z,7.23
2018-10-11T22:55:32.315Z,7.13
2018-10-11T22:58:01.382Z,6.90
2018-10-11T23:00:29.893Z,7.00
2018-10-11T23:02:58.297Z,6.73
2018-10-11T23:05:26.754Z,7.03
2018-10-11T23:07:55.174Z,6.70
2018-10-11T23:10:23.613Z,7.00
2018-10-11T23:12:52.017Z,6.70
2018-10-11T23:15:20.467Z,6.80
2018-10-11T23:17:48.850Z,7.77
2018-10-11T23:20:17.293Z,6.73
2018-10-11T23:22:45.695Z,6.80
2018-10-11T23:25:14.137Z,7.57
2018-10-11T23:27:42.549Z,6.90
2018-10-11T23:30:11.976Z,7.07
2018-10-11T23:32:41.153Z,7.27
2018-10-11T23:35:10.282Z,6.70
2018-10-11T23:37:38.783Z,7.13
2018-10-11T23:40:07.300Z,7.77
2018-10-11T23:42:35.713Z,7.00
2018-10-11T23:45:04.230Z,7.27
2018-10-11T23:47:32.683Z,6.93
2018-10-11T23:50:01.098Z,7.67
2018-10-11T23:52:29.545Z,7.60
2018-10-11T23:54:57.982Z,7.03
2018-10-11T23:57:26.414Z,7.43
2018-10-11T23:59:54.813Z,6.90
